sensor_id;sensor_type;location;lat;lon;timestamp;temperature;humidity
31639;DHT22;18248;51.522;7.020;2023-11-21T00:01:48;9.10;99.90
31639;DHT22;18248;51.522;7.020;2023-11-21T00:04:47;9.10;99.90
31639;DHT22;18248;51.522;7.020;2023-11-21T00:07:46;9.20;99.90
31639;DHT22;18248;51.522;7.020;2023-11-21T00:10:44;9.10;99.90
31639;DHT22;18248;51.522;7.020;2023-11-21T00:13:43;9.10;99.90
31639;DHT22;18248;51.522;7.020;2023-11-21T00:16:42;9.10;99.90
31639;DHT22;18248;51.522;7.020;2023-11-21T00:19:40;9.10;99.90
31639;DHT22;18248;51.522;7.020;2023-11-21T00:22:41;9.20;99.90
31639;DHT22;18248;51.522;7.020;2023-11-21T00:25:39;9.20;99.90
31639;DHT22;18248;51.522;7.020;2023-11-21T00:28:38;9.20;99.90
31639;DHT22;18248;51.522;7.020;2023-11-21T00:31:36;9.30;99.90
31639;DHT22;18248;51.522;7.020;2023-11-21T00:34:35;9.30;99.90
31639;DHT22;18248;51.522;7.020;2023-11-21T00:37:34;9.30;99.90
31639;DHT22;18248;51.522;7.020;2023-11-21T00:40:32;9.40;99.90
31639;DHT22;18248;51.522;7.020;2023-11-21T00:43:31;9.40;99.90
31639;DHT22;18248;51.522;7.020;2023-11-21T00:46:29;9.40;99.90
31639;DHT22;18248;51.522;7.020;2023-11-21T00:49:28;9.40;99.90
31639;DHT22;18248;51.522;7.020;2023-11-21T00:52:26;9.50;99.90
31639;DHT22;18248;51.522;7.020;2023-11-21T00:55:25;9.50;99.90
31639;DHT22;18248;51.522;7.020;2023-11-21T00:58:25;9.50;99.90
31639;DHT22;18248;51.522;7.020;2023-11-21T01:01:23;9.60;99.90
31639;DHT22;18248;51.522;7.020;2023-11-21T01:04:22;9.60;99.90
31639;DHT22;18248;51.522;7.020;2023-11-21T01:07:21;9.60;99.90
31639;DHT22;18248;51.522;7.020;2023-11-21T01:10:20;9.60;99.90
31639;DHT22;18248;51.522;7.020;2023-11-21T01:13:19;9.60;99.90
31639;DHT22;18248;51.522;7.020;2023-11-21T01:16:18;9.60;99.90
31639;DHT22;18248;51.522;7.020;2023-11-21T01:19:16;9.70;99.90
31639;DHT22;18248;51.522;7.020;2023-11-21T01:22:15;9.70;99.90
31639;DHT22;18248;51.522;7.020;2023-11-21T01:25:14;9.70;99.90
31639;DHT22;18248;51.522;7.020;2023-11-21T01:28:14;9.70;99.90
31639;DHT22;18248;51.522;7.020;2023-11-21T01:31:17;9.70;99.90
31639;DHT22;18248;51.522;7.020;2023-11-21T01:34:16;9.70;99.90
31639;DHT22;18248;51.522;7.020;2023-11-21T01:37:14;9.70;99.90
31639;DHT22;18248;51.522;7.020;2023-11-21T01:40:13;9.70;99.90
31639;DHT22;18248;51.522;7.020;2023-11-21T01:43:12;9.80;99.90
31639;DHT22;18248;51.522;7.020;2023-11-21T01:46:10;9.80;99.90
31639;DHT22;18248;51.522;7.020;2023-11-21T01:49:10;9.70;99.90
31639;DHT22;18248;51.522;7.020;2023-11-21T01:52:11;9.70;99.90
31639;DHT22;18248;51.522;7.020;2023-11-21T01:55:10;9.70;99.90
31639;DHT22;18248;51.522;7.020;2023-11-21T01:58:10;9.70;99.90
31639;DHT22;18248;51.522;7.020;2023-11-21T02:01:10;9.70;99.90
31639;DHT22;18248;51.522;7.020;2023-11-21T02:04:09;9.70;99.90
31639;DHT22;18248;51.522;7.020;2023-11-21T02:07:08;9.70;99.90
31639;DHT22;18248;51.522;7.020;2023-11-21T02:10:07;9.70;99.90
31639;DHT22;18248;51.522;7.020;2023-11-21T02:13:06;9.80;99.90
31639;DHT22;18248;51.522;7.020;2023-11-21T02:16:05;9.70;99.90
31639;DHT22;18248;51.522;7.020;2023-11-21T02:19:07;9.80;99.90
31639;DHT22;18248;51.522;7.020;2023-11-21T02:22:07;9.80;99.90
31639;DHT22;18248;51.522;7.020;2023-11-21T02:25:09;9.80;99.90
31639;DHT22;18248;51.522;7.020;2023-11-21T02:28:08;9.80;99.90
31639;DHT22;18248;51.522;7.020;2023-11-21T02:31:06;9.80;99.90
31639;DHT22;18248;51.522;7.020;2023-11-21T02:34:06;9.80;99.90
31639;DHT22;18248;51.522;7.020;2023-11-21T02:37:04;9.80;99.90
31639;DHT22;18248;51.522;7.020;2023-11-21T02:40:04;9.80;99.90
31639;DHT22;18248;51.522;7.020;2023-11-21T02:43:04;9.80;99.90
31639;DHT22;18248;51.522;7.020;2023-11-21T02:46:04;9.80;99.90
31639;DHT22;18248;51.522;7.020;2023-11-21T02:49:03;9.80;99.90
31639;DHT22;18248;51.522;7.020;2023-11-21T02:52:02;9.80;99.90
31639;DHT22;18248;51.522;7.020;2023-11-21T02:55:01;9.80;99.90
31639;DHT22;18248;51.522;7.020;2023-11-21T02:58:00;9.80;99.90
31639;DHT22;18248;51.522;7.020;2023-11-21T03:00:59;9.80;99.90
31639;DHT22;18248;51.522;7.020;2023-11-21T03:03:57;9.80;99.90
31639;DHT22;18248;51.522;7.020;2023-11-21T03:06:56;9.80;99.90
31639;DHT22;18248;51.522;7.020;2023-11-21T03:09:54;9.80;99.90
31639;DHT22;18248;51.522;7.020;2023-11-21T03:12:53;9.80;99.90
31639;DHT22;18248;51.522;7.020;2023-11-21T03:15:52;9.80;99.90
31639;DHT22;18248;51.522;7.020;2023-11-21T03:18:50;9.80;99.90
31639;DHT22;18248;51.522;7.020;2023-11-21T03:21:50;9.80;99.90
31639;DHT22;18248;51.522;7.020;2023-11-21T03:24:51;9.80;99.90
31639;DHT22;18248;51.522;7.020;2023-11-21T03:27:50;9.80;99.90
31639;DHT22;18248;51.522;7.020;2023-11-21T03:30:48;9.80;99.90
31639;DHT22;18248;51.522;7.020;2023-11-21T03:33:47;9.80;99.90
31639;DHT22;18248;51.522;7.020;2023-11-21T03:36:45;9.70;99.90
31639;DHT22;18248;51.522;7.020;2023-11-21T03:39:45;9.70;99.90
31639;DHT22;18248;51.522;7.020;2023-11-21T03:42:43;9.70;99.90
31639;DHT22;18248;51.522;7.020;2023-11-21T03:45:42;9.80;99.90
31639;DHT22;18248;51.522;7.020;2023-11-21T03:48:41;9.80;99.90
31639;DHT22;18248;51.522;7.020;2023-11-21T03:51:40;9.80;99.90
31639;DHT22;18248;51.522;7.020;2023-11-21T03:54:38;9.80;99.90
31639;DHT22;18248;51.522;7.020;2023-11-21T03:57:37;9.80;99.90
31639;DHT22;18248;51.522;7.020;2023-11-21T04:00:35;9.80;99.90
31639;DHT22;18248;51.522;7.020;2023-11-21T04:03:34;9.80;99.90
31639;DHT22;18248;51.522;7.020;2023-11-21T04:06:33;9.80;99.90
31639;DHT22;18248;51.522;7.020;2023-11-21T04:09:31;9.80;99.90
31639;DHT22;18248;51.522;7.020;2023-11-21T04:12:30;9.80;99.90
31639;DHT22;18248;51.522;7.020;2023-11-21T04:15:28;9.80;99.90
31639;DHT22;18248;51.522;7.020;2023-11-21T04:18:27;9.80;99.90
31639;DHT22;18248;51.522;7.020;2023-11-21T04:21:25;9.90;99.90
31639;DHT22;18248;51.522;7.020;2023-11-21T04:24:24;9.90;99.90
31639;DHT22;18248;51.522;7.020;2023-11-21T04:27:22;9.90;99.90
31639;DHT22;18248;51.522;7.020;2023-11-21T04:30:21;9.90;99.90
31639;DHT22;18248;51.522;7.020;2023-11-21T04:33:20;9.90;99.90
31639;DHT22;18248;51.522;7.020;2023-11-21T04:36:19;9.90;99.90
31639;DHT22;18248;51.522;7.020;2023-11-21T04:39:18;9.90;99.90
31639;DHT22;18248;51.522;7.020;2023-11-21T04:42:18;9.90;99.90
31639;DHT22;18248;51.522;7.020;2023-11-21T04:45:16;9.90;99.90
31639;DHT22;18248;51.522;7.020;2023-11-21T04:48:15;9.90;99.90
31639;DHT22;18248;51.522;7.020;2023-11-21T04:51:13;9.90;99.90
31639;DHT22;18248;51.522;7.020;2023-11-21T04:54:12;9.90;99.90
31639;DHT22;18248;51.522;7.020;2023-11-21T04:57:11;9.80;99.90
31639;DHT22;18248;51.522;7.020;2023-11-21T05:00:10;9.80;99.90
31639;DHT22;18248;51.522;7.020;2023-11-21T05:03:09;9.80;99.90
31639;DHT22;18248;51.522;7.020;2023-11-21T05:06:10;9.80;99.90
31639;DHT22;18248;51.522;7.020;2023-11-21T05:09:08;9.80;99.90
31639;DHT22;18248;51.522;7.020;2023-11-21T05:12:10;9.70;99.90
31639;DHT22;18248;51.522;7.020;2023-11-21T05:15:10;9.70;99.90
31639;DHT22;18248;51.522;7.020;2023-11-21T05:18:12;9.70;99.90
31639;DHT22;18248;51.522;7.020;2023-11-21T05:21:14;9.70;99.90
31639;DHT22;18248;51.522;7.020;2023-11-21T05:24:13;9.70;99.90
31639;DHT22;18248;51.522;7.020;2023-11-21T05:27:11;9.70;99.90
31639;DHT22;18248;51.522;7.020;2023-11-21T05:30:11;9.70;99.90
31639;DHT22;18248;51.522;7.020;2023-11-21T05:33:10;9.70;99.90
31639;DHT22;18248;51.522;7.020;2023-11-21T05:36:09;9.70;99.90
31639;DHT22;18248;51.522;7.020;2023-11-21T05:39:08;9.70;99.90
31639;DHT22;18248;51.522;7.020;2023-11-21T05:42:06;9.60;99.90
31639;DHT22;18248;51.522;7.020;2023-11-21T05:45:08;9.60;99.90
31639;DHT22;18248;51.522;7.020;2023-11-21T05:48:09;9.60;99.90
31639;DHT22;18248;51.522;7.020;2023-11-21T05:51:08;9.60;99.90
31639;DHT22;18248;51.522;7.020;2023-11-21T05:54:06;9.60;99.90
31639;DHT22;18248;51.522;7.020;2023-11-21T05:57:06;9.60;99.90
31639;DHT22;18248;51.522;7.020;2023-11-21T06:00:09;9.60;99.90
31639;DHT22;18248;51.522;7.020;2023-11-21T06:03:09;9.60;99.90
31639;DHT22;18248;51.522;7.020;2023-11-21T06:06:08;9.60;99.90
31639;DHT22;18248;51.522;7.020;2023-11-21T06:09:07;9.60;99.90
31639;DHT22;18248;51.522;7.020;2023-11-21T06:12:07;9.60;99.90
31639;DHT22;18248;51.522;7.020;2023-11-21T06:15:06;9.60;99.90
31639;DHT22;18248;51.522;7.020;2023-11-21T06:18:07;9.60;99.90
31639;DHT22;18248;51.522;7.020;2023-11-21T06:21:11;9.60;99.90
31639;DHT22;18248;51.522;7.020;2023-11-21T06:24:10;9.60;99.90
31639;DHT22;18248;51.522;7.020;2023-11-21T06:27:08;9.60;99.90
31639;DHT22;18248;51.522;7.020;2023-11-21T06:30:07;9.60;99.90
31639;DHT22;18248;51.522;7.020;2023-11-21T06:33:07;9.60;99.90
31639;DHT22;18248;51.522;7.020;2023-11-21T06:36:06;9.60;99.90
31639;DHT22;18248;51.522;7.020;2023-11-21T06:39:05;9.60;99.90
31639;DHT22;18248;51.522;7.020;2023-11-21T06:42:05;9.60;99.90
31639;DHT22;18248;51.522;7.020;2023-11-21T06:45:04;9.60;99.90
31639;DHT22;18248;51.522;7.020;2023-11-21T06:48:03;9.60;99.90
31639;DHT22;18248;51.522;7.020;2023-11-21T06:51:01;9.60;99.90
31639;DHT22;18248;51.522;7.020;2023-11-21T06:54:00;9.60;99.90
31639;DHT22;18248;51.522;7.020;2023-11-21T06:56:58;9.50;99.90
31639;DHT22;18248;51.522;7.020;2023-11-21T06:59:57;9.60;99.90
31639;DHT22;18248;51.522;7.020;2023-11-21T07:02:56;9.60;99.90
31639;DHT22;18248;51.522;7.020;2023-11-21T07:05:54;9.60;99.90
31639;DHT22;18248;51.522;7.020;2023-11-21T07:08:53;9.70;99.90
31639;DHT22;18248;51.522;7.020;2023-11-21T07:11:52;9.70;99.90
31639;DHT22;18248;51.522;7.020;2023-11-21T07:14:50;9.70;99.90
31639;DHT22;18248;51.522;7.020;2023-11-21T07:17:49;9.70;99.90
31639;DHT22;18248;51.522;7.020;2023-11-21T07:20:47;9.70;99.90
31639;DHT22;18248;51.522;7.020;2023-11-21T07:23:46;9.70;99.90
31639;DHT22;18248;51.522;7.020;2023-11-21T07:26:44;9.70;99.90
31639;DHT22;18248;51.522;7.020;2023-11-21T07:29:43;9.70;99.90
31639;DHT22;18248;51.522;7.020;2023-11-21T07:32:42;9.70;99.90
31639;DHT22;18248;51.522;7.020;2023-11-21T07:35:40;9.80;99.90
31639;DHT22;18248;51.522;7.020;2023-11-21T07:38:39;9.80;99.90
31639;DHT22;18248;51.522;7.020;2023-11-21T07:41:38;9.80;99.90
31639;DHT22;18248;51.522;7.020;2023-11-21T07:44:43;9.80;99.90
31639;DHT22;18248;51.522;7.020;2023-11-21T07:47:41;9.80;99.90
31639;DHT22;18248;51.522;7.020;2023-11-21T07:50:40;9.90;99.90
31639;DHT22;18248;51.522;7.020;2023-11-21T07:53:38;9.90;99.90
31639;DHT22;18248;51.522;7.020;2023-11-21T07:56:37;9.90;99.90
31639;DHT22;18248;51.522;7.020;2023-11-21T07:59:36;10.00;99.90
31639;DHT22;18248;51.522;7.020;2023-11-21T08:02:34;10.00;99.90
31639;DHT22;18248;51.522;7.020;2023-11-21T08:05:33;10.10;99.90
31639;DHT22;18248;51.522;7.020;2023-11-21T08:08:31;10.10;99.90
31639;DHT22;18248;51.522;7.020;2023-11-21T08:11:30;10.10;99.90
31639;DHT22;18248;51.522;7.020;2023-11-21T08:14:30;10.10;99.90
31639;DHT22;18248;51.522;7.020;2023-11-21T08:17:29;10.10;99.90
31639;DHT22;18248;51.522;7.020;2023-11-21T08:20:29;10.10;99.90
31639;DHT22;18248;51.522;7.020;2023-11-21T08:23:28;10.10;99.90
31639;DHT22;18248;51.522;7.020;2023-11-21T08:26:27;10.20;99.90
31639;DHT22;18248;51.522;7.020;2023-11-21T08:29:26;10.20;99.90
31639;DHT22;18248;51.522;7.020;2023-11-21T08:32:25;10.20;99.90
31639;DHT22;18248;51.522;7.020;2023-11-21T08:35:24;10.20;99.90
31639;DHT22;18248;51.522;7.020;2023-11-21T08:38:22;10.20;99.90
31639;DHT22;18248;51.522;7.020;2023-11-21T08:41:21;10.20;99.90
31639;DHT22;18248;51.522;7.020;2023-11-21T08:44:20;10.30;99.90
31639;DHT22;18248;51.522;7.020;2023-11-21T08:47:18;10.30;99.90
31639;DHT22;18248;51.522;7.020;2023-11-21T08:50:17;10.40;99.90
31639;DHT22;18248;51.522;7.020;2023-11-21T08:53:15;10.40;99.90
31639;DHT22;18248;51.522;7.020;2023-11-21T08:56:15;10.40;99.90
31639;DHT22;18248;51.522;7.020;2023-11-21T08:59:13;10.40;99.90
31639;DHT22;18248;51.522;7.020;2023-11-21T09:02:15;10.50;99.90
31639;DHT22;18248;51.522;7.020;2023-11-21T09:05:14;10.50;99.90
31639;DHT22;18248;51.522;7.020;2023-11-21T09:08:13;10.50;99.90
31639;DHT22;18248;51.522;7.020;2023-11-21T09:11:11;10.60;99.90
31639;DHT22;18248;51.522;7.020;2023-11-21T09:14:10;10.60;99.90
31639;DHT22;18248;51.522;7.020;2023-11-21T09:17:11;10.60;99.90
31639;DHT22;18248;51.522;7.020;2023-11-21T09:20:10;10.60;99.90
31639;DHT22;18248;51.522;7.020;2023-11-21T09:23:08;10.60;99.90
31639;DHT22;18248;51.522;7.020;2023-11-21T09:26:07;10.70;99.90
31639;DHT22;18248;51.522;7.020;2023-11-21T09:29:05;10.70;99.90
31639;DHT22;18248;51.522;7.020;2023-11-21T09:32:06;10.70;99.90
31639;DHT22;18248;51.522;7.020;2023-11-21T09:35:06;10.70;99.90
31639;DHT22;18248;51.522;7.020;2023-11-21T09:38:06;10.70;99.90
31639;DHT22;18248;51.522;7.020;2023-11-21T09:41:25;10.70;99.90
31639;DHT22;18248;51.522;7.020;2023-11-21T09:48:12;10.70;99.90
31639;DHT22;18248;51.522;7.020;2023-11-21T09:51:11;10.70;99.90
31639;DHT22;18248;51.522;7.020;2023-11-21T09:54:10;10.80;99.90
31639;DHT22;18248;51.522;7.020;2023-11-21T09:57:09;10.90;99.90
31639;DHT22;18248;51.522;7.020;2023-11-21T10:00:08;11.00;99.90
31639;DHT22;18248;51.522;7.020;2023-11-21T10:03:10;11.00;99.90
31639;DHT22;18248;51.522;7.020;2023-11-21T10:06:10;11.10;99.90
31639;DHT22;18248;51.522;7.020;2023-11-21T10:09:14;11.10;99.90
31639;DHT22;18248;51.522;7.020;2023-11-21T10:12:15;11.20;99.90
31639;DHT22;18248;51.522;7.020;2023-11-21T10:15:15;11.20;99.90
31639;DHT22;18248;51.522;7.020;2023-11-21T10:18:15;11.30;99.90
31639;DHT22;18248;51.522;7.020;2023-11-21T10:21:14;11.30;99.90
31639;DHT22;18248;51.522;7.020;2023-11-21T10:24:12;11.30;99.90
31639;DHT22;18248;51.522;7.020;2023-11-21T10:27:11;11.40;99.90
31639;DHT22;18248;51.522;7.020;2023-11-21T10:30:11;11.30;99.90
31639;DHT22;18248;51.522;7.020;2023-11-21T10:33:10;11.30;99.90
31639;DHT22;18248;51.522;7.020;2023-11-21T10:36:09;11.40;99.90
31639;DHT22;18248;51.522;7.020;2023-11-21T10:39:09;11.40;99.90
31639;DHT22;18248;51.522;7.020;2023-11-21T10:42:11;11.50;99.90
31639;DHT22;18248;51.522;7.020;2023-11-21T10:45:09;11.50;99.90
31639;DHT22;18248;51.522;7.020;2023-11-21T10:48:14;11.50;99.90
31639;DHT22;18248;51.522;7.020;2023-11-21T10:51:13;11.40;99.90
31639;DHT22;18248;51.522;7.020;2023-11-21T10:54:12;11.40;99.90
31639;DHT22;18248;51.522;7.020;2023-11-21T10:57:15;11.40;99.90
31639;DHT22;18248;51.522;7.020;2023-11-21T11:00:16;11.40;99.90
31639;DHT22;18248;51.522;7.020;2023-11-21T11:03:17;11.40;99.90
31639;DHT22;18248;51.522;7.020;2023-11-21T11:06:16;11.40;99.90
31639;DHT22;18248;51.522;7.020;2023-11-21T11:09:15;11.50;99.90
31639;DHT22;18248;51.522;7.020;2023-11-21T11:12:14;11.50;99.90
31639;DHT22;18248;51.522;7.020;2023-11-21T11:15:16;11.50;99.90
31639;DHT22;18248;51.522;7.020;2023-11-21T11:18:19;11.60;99.90
31639;DHT22;18248;51.522;7.020;2023-11-21T11:21:28;11.60;99.90
31639;DHT22;18248;51.522;7.020;2023-11-21T11:28:07;11.70;99.90
31639;DHT22;18248;51.522;7.020;2023-11-21T11:34:38;11.60;99.90
31639;DHT22;18248;51.522;7.020;2023-11-21T11:37:40;11.60;99.90
31639;DHT22;18248;51.522;7.020;2023-11-21T11:40:40;11.70;99.90
31639;DHT22;18248;51.522;7.020;2023-11-21T11:43:39;11.70;99.90
31639;DHT22;18248;51.522;7.020;2023-11-21T11:46:44;11.70;99.90
31639;DHT22;18248;51.522;7.020;2023-11-21T11:50:02;11.70;99.90
31639;DHT22;18248;51.522;7.020;2023-11-21T11:53:16;11.70;99.90
31639;DHT22;18248;51.522;7.020;2023-11-21T11:56:26;11.70;99.90
31639;DHT22;18248;51.522;7.020;2023-11-21T11:59:25;11.70;99.90
31639;DHT22;18248;51.522;7.020;2023-11-21T12:02:24;11.70;99.90
31639;DHT22;18248;51.522;7.020;2023-11-21T12:05:23;11.70;99.90
31639;DHT22;18248;51.522;7.020;2023-11-21T12:08:22;11.70;99.90
31639;DHT22;18248;51.522;7.020;2023-11-21T12:11:21;11.70;99.90
31639;DHT22;18248;51.522;7.020;2023-11-21T12:14:28;11.70;99.90
31639;DHT22;18248;51.522;7.020;2023-11-21T12:17:27;11.70;99.90
31639;DHT22;18248;51.522;7.020;2023-11-21T12:20:26;11.60;99.90
31639;DHT22;18248;51.522;7.020;2023-11-21T12:23:25;11.60;99.90
31639;DHT22;18248;51.522;7.020;2023-11-21T12:26:24;11.60;99.90
31639;DHT22;18248;51.522;7.020;2023-11-21T12:29:23;11.60;99.90
31639;DHT22;18248;51.522;7.020;2023-11-21T12:32:21;11.60;99.90
31639;DHT22;18248;51.522;7.020;2023-11-21T12:35:22;11.60;99.90
31639;DHT22;18248;51.522;7.020;2023-11-21T12:38:22;11.60;99.90
31639;DHT22;18248;51.522;7.020;2023-11-21T12:41:23;11.60;99.90
31639;DHT22;18248;51.522;7.020;2023-11-21T12:44:21;11.60;99.90
31639;DHT22;18248;51.522;7.020;2023-11-21T12:47:22;11.60;99.90
31639;DHT22;18248;51.522;7.020;2023-11-21T12:50:24;11.60;99.90
31639;DHT22;18248;51.522;7.020;2023-11-21T12:53:26;11.50;99.90
31639;DHT22;18248;51.522;7.020;2023-11-21T12:56:31;11.50;99.90
31639;DHT22;18248;51.522;7.020;2023-11-21T12:59:31;11.50;99.90
31639;DHT22;18248;51.522;7.020;2023-11-21T13:02:30;11.50;99.90
31639;DHT22;18248;51.522;7.020;2023-11-21T13:05:36;11.50;99.90
31639;DHT22;18248;51.522;7.020;2023-11-21T13:08:40;11.50;99.90
31639;DHT22;18248;51.522;7.020;2023-11-21T13:11:39;11.40;99.90
31639;DHT22;18248;51.522;7.020;2023-11-21T13:14:40;11.40;99.90
31639;DHT22;18248;51.522;7.020;2023-11-21T13:17:38;11.50;99.90
31639;DHT22;18248;51.522;7.020;2023-11-21T13:20:39;11.40;99.90
31639;DHT22;18248;51.522;7.020;2023-11-21T13:23:38;11.40;99.90
31639;DHT22;18248;51.522;7.020;2023-11-21T13:26:36;11.40;99.90
31639;DHT22;18248;51.522;7.020;2023-11-21T13:29:35;11.40;99.90
31639;DHT22;18248;51.522;7.020;2023-11-21T13:32:33;11.40;99.90
31639;DHT22;18248;51.522;7.020;2023-11-21T13:35:37;11.40;99.90
31639;DHT22;18248;51.522;7.020;2023-11-21T13:38:40;11.40;99.90
31639;DHT22;18248;51.522;7.020;2023-11-21T13:41:42;11.30;99.90
31639;DHT22;18248;51.522;7.020;2023-11-21T13:44:40;11.30;99.90
31639;DHT22;18248;51.522;7.020;2023-11-21T13:47:43;11.40;99.90
31639;DHT22;18248;51.522;7.020;2023-11-21T13:50:43;11.40;99.90
31639;DHT22;18248;51.522;7.020;2023-11-21T13:53:57;11.40;99.90
31639;DHT22;18248;51.522;7.020;2023-11-21T13:56:55;11.40;99.90
31639;DHT22;18248;51.522;7.020;2023-11-21T13:59:54;11.40;99.90
31639;DHT22;18248;51.522;7.020;2023-11-21T14:02:52;11.40;99.90
31639;DHT22;18248;51.522;7.020;2023-11-21T14:05:51;11.40;99.90
31639;DHT22;18248;51.522;7.020;2023-11-21T14:08:50;11.40;99.90
31639;DHT22;18248;51.522;7.020;2023-11-21T14:11:53;11.40;99.90
31639;DHT22;18248;51.522;7.020;2023-11-21T14:14:51;11.40;99.90
31639;DHT22;18248;51.522;7.020;2023-11-21T14:17:50;11.40;99.90
31639;DHT22;18248;51.522;7.020;2023-11-21T14:20:48;11.30;99.90
31639;DHT22;18248;51.522;7.020;2023-11-21T14:23:47;11.30;99.90
31639;DHT22;18248;51.522;7.020;2023-11-21T14:26:47;11.30;99.90
31639;DHT22;18248;51.522;7.020;2023-11-21T14:29:45;11.30;99.90
31639;DHT22;18248;51.522;7.020;2023-11-21T14:32:44;11.20;99.90
31639;DHT22;18248;51.522;7.020;2023-11-21T14:35:43;11.20;99.90
31639;DHT22;18248;51.522;7.020;2023-11-21T14:38:41;11.20;99.90
31639;DHT22;18248;51.522;7.020;2023-11-21T14:41:41;11.20;99.90
31639;DHT22;18248;51.522;7.020;2023-11-21T14:44:41;11.20;99.90
31639;DHT22;18248;51.522;7.020;2023-11-21T14:47:40;11.20;99.90
31639;DHT22;18248;51.522;7.020;2023-11-21T14:50:44;11.20;99.90
31639;DHT22;18248;51.522;7.020;2023-11-21T14:54:01;11.20;99.90
31639;DHT22;18248;51.522;7.020;2023-11-21T14:57:04;11.20;99.90
31639;DHT22;18248;51.522;7.020;2023-11-21T15:00:08;11.20;99.90
31639;DHT22;18248;51.522;7.020;2023-11-21T15:03:28;11.20;99.90
31639;DHT22;18248;51.522;7.020;2023-11-21T15:06:30;11.10;99.90
31639;DHT22;18248;51.522;7.020;2023-11-21T15:09:29;11.10;99.90
31639;DHT22;18248;51.522;7.020;2023-11-21T15:12:30;11.10;99.90
31639;DHT22;18248;51.522;7.020;2023-11-21T15:15:32;11.10;99.90
31639;DHT22;18248;51.522;7.020;2023-11-21T15:18:33;11.00;99.90
31639;DHT22;18248;51.522;7.020;2023-11-21T15:21:32;11.00;99.90
31639;DHT22;18248;51.522;7.020;2023-11-21T15:24:31;10.90;99.90
31639;DHT22;18248;51.522;7.020;2023-11-21T15:27:30;10.90;99.90
31639;DHT22;18248;51.522;7.020;2023-11-21T15:30:28;10.80;99.90
31639;DHT22;18248;51.522;7.020;2023-11-21T15:33:30;10.70;99.90
31639;DHT22;18248;51.522;7.020;2023-11-21T15:36:29;10.70;99.90
31639;DHT22;18248;51.522;7.020;2023-11-21T15:39:28;10.70;99.90
31639;DHT22;18248;51.522;7.020;2023-11-21T15:42:28;10.70;99.90
31639;DHT22;18248;51.522;7.020;2023-11-21T15:45:27;10.70;99.90
31639;DHT22;18248;51.522;7.020;2023-11-21T15:48:25;10.60;99.90
31639;DHT22;18248;51.522;7.020;2023-11-21T15:51:24;10.60;99.90
31639;DHT22;18248;51.522;7.020;2023-11-21T15:54:23;10.50;99.90
31639;DHT22;18248;51.522;7.020;2023-11-21T15:57:23;10.50;99.90
31639;DHT22;18248;51.522;7.020;2023-11-21T16:00:23;10.50;99.90
31639;DHT22;18248;51.522;7.020;2023-11-21T16:03:22;10.50;99.90
31639;DHT22;18248;51.522;7.020;2023-11-21T16:06:21;10.50;99.90
31639;DHT22;18248;51.522;7.020;2023-11-21T16:09:20;10.40;99.90
31639;DHT22;18248;51.522;7.020;2023-11-21T16:12:20;10.30;99.90
31639;DHT22;18248;51.522;7.020;2023-11-21T16:15:19;10.20;99.90
31639;DHT22;18248;51.522;7.020;2023-11-21T16:18:18;10.20;99.90
31639;DHT22;18248;51.522;7.020;2023-11-21T16:21:17;10.20;99.90
31639;DHT22;18248;51.522;7.020;2023-11-21T16:24:16;10.10;99.90
31639;DHT22;18248;51.522;7.020;2023-11-21T16:27:14;10.10;99.90
31639;DHT22;18248;51.522;7.020;2023-11-21T16:30:14;10.00;99.90
31639;DHT22;18248;51.522;7.020;2023-11-21T16:33:12;10.00;99.90
31639;DHT22;18248;51.522;7.020;2023-11-21T16:36:11;9.90;99.90
31639;DHT22;18248;51.522;7.020;2023-11-21T16:39:10;9.90;99.90
31639;DHT22;18248;51.522;7.020;2023-11-21T16:42:10;9.90;99.90
31639;DHT22;18248;51.522;7.020;2023-11-21T16:45:09;9.80;99.90
31639;DHT22;18248;51.522;7.020;2023-11-21T16:48:07;9.80;99.90
31639;DHT22;18248;51.522;7.020;2023-11-21T16:51:06;9.80;99.90
31639;DHT22;18248;51.522;7.020;2023-11-21T16:54:05;9.80;99.90
31639;DHT22;18248;51.522;7.020;2023-11-21T16:57:04;9.80;99.90
31639;DHT22;18248;51.522;7.020;2023-11-21T17:00:03;9.70;99.90
31639;DHT22;18248;51.522;7.020;2023-11-21T17:03:05;9.70;99.90
31639;DHT22;18248;51.522;7.020;2023-11-21T17:06:04;9.70;99.90
31639;DHT22;18248;51.522;7.020;2023-11-21T17:09:04;9.70;99.90
31639;DHT22;18248;51.522;7.020;2023-11-21T17:12:02;9.60;99.90
31639;DHT22;18248;51.522;7.020;2023-11-21T17:15:04;9.60;99.90
31639;DHT22;18248;51.522;7.020;2023-11-21T17:18:02;9.50;99.90
31639;DHT22;18248;51.522;7.020;2023-11-21T17:21:01;9.50;99.90
31639;DHT22;18248;51.522;7.020;2023-11-21T17:24:00;9.40;99.90
31639;DHT22;18248;51.522;7.020;2023-11-21T17:26:59;9.30;99.90
31639;DHT22;18248;51.522;7.020;2023-11-21T17:29:58;9.40;99.90
31639;DHT22;18248;51.522;7.020;2023-11-21T17:32:57;9.30;99.90
31639;DHT22;18248;51.522;7.020;2023-11-21T17:35:55;9.30;99.90
31639;DHT22;18248;51.522;7.020;2023-11-21T17:38:54;9.30;99.90
31639;DHT22;18248;51.522;7.020;2023-11-21T17:41:52;9.20;99.90
31639;DHT22;18248;51.522;7.020;2023-11-21T17:44:51;9.30;99.90
31639;DHT22;18248;51.522;7.020;2023-11-21T17:47:49;9.20;99.90
31639;DHT22;18248;51.522;7.020;2023-11-21T17:50:48;9.10;99.90
31639;DHT22;18248;51.522;7.020;2023-11-21T17:53:47;9.10;99.90
31639;DHT22;18248;51.522;7.020;2023-11-21T17:56:47;9.20;99.90
31639;DHT22;18248;51.522;7.020;2023-11-21T17:59:47;9.20;99.90
31639;DHT22;18248;51.522;7.020;2023-11-21T18:02:48;9.20;99.90
31639;DHT22;18248;51.522;7.020;2023-11-21T18:05:47;9.20;99.90
31639;DHT22;18248;51.522;7.020;2023-11-21T18:08:46;9.10;99.90
31639;DHT22;18248;51.522;7.020;2023-11-21T18:11:44;9.10;99.90
31639;DHT22;18248;51.522;7.020;2023-11-21T18:14:43;9.10;99.90
31639;DHT22;18248;51.522;7.020;2023-11-21T18:17:42;9.10;99.90
31639;DHT22;18248;51.522;7.020;2023-11-21T18:20:40;9.10;99.90
31639;DHT22;18248;51.522;7.020;2023-11-21T18:23:39;9.00;99.90
31639;DHT22;18248;51.522;7.020;2023-11-21T18:26:38;9.00;99.90
31639;DHT22;18248;51.522;7.020;2023-11-21T18:29:36;9.00;99.90
31639;DHT22;18248;51.522;7.020;2023-11-21T18:32:35;9.00;99.90
31639;DHT22;18248;51.522;7.020;2023-11-21T18:35:34;8.90;99.90
31639;DHT22;18248;51.522;7.020;2023-11-21T18:38:33;8.90;99.90
31639;DHT22;18248;51.522;7.020;2023-11-21T18:41:31;8.90;99.90
31639;DHT22;18248;51.522;7.020;2023-11-21T18:44:30;8.90;99.90
31639;DHT22;18248;51.522;7.020;2023-11-21T18:47:29;8.90;99.90
31639;DHT22;18248;51.522;7.020;2023-11-21T18:50:27;8.80;99.90
31639;DHT22;18248;51.522;7.020;2023-11-21T18:53:26;8.80;99.90
31639;DHT22;18248;51.522;7.020;2023-11-21T18:56:26;8.80;99.90
31639;DHT22;18248;51.522;7.020;2023-11-21T18:59:27;8.80;99.90
31639;DHT22;18248;51.522;7.020;2023-11-21T19:02:26;8.80;99.90
31639;DHT22;18248;51.522;7.020;2023-11-21T19:05:25;8.70;99.90
31639;DHT22;18248;51.522;7.020;2023-11-21T19:08:23;8.70;99.90
31639;DHT22;18248;51.522;7.020;2023-11-21T19:11:22;8.80;99.90
31639;DHT22;18248;51.522;7.020;2023-11-21T19:14:20;8.70;99.90
31639;DHT22;18248;51.522;7.020;2023-11-21T19:17:19;8.80;99.90